logo
Search for airport 
image banner adimage banner adimage banner ad
image banner ad

LSVD - Clariden-Hufifirn

Located in , Switzerland

ICAO - , IATA -

Data provided by Airmate  

General information

Coordinates: N46°49'19" E8°52'49"
Elevation is 9658 feet MSL.
 
View others Airports in Nidwalden

Operational data

Special qualification required
Current time UTC:
Current local time:
Weather at : LSZC - Buochs ( 40 km )
METAR: LSZC 140150Z AUTO 26005KT CAVOK 10/07 Q1026
View NOTAMs / SUP AIP / TFR affecting this airport [VIEW]
Communications frequencies: [VIEW]

Runways:

Airport contact information

Address: Switzerland

Satellite view of LSVD